createdAt,value
2017-07-27T00:00:44.975Z,0
2017-07-27T00:01:44.640Z,0
2017-07-27T00:02:44.993Z,0
2017-07-27T00:03:44.950Z,0
2017-07-27T00:04:45.276Z,0
2017-07-27T00:05:44.967Z,0
2017-07-27T00:06:45.308Z,0
2017-07-27T00:07:45.262Z,0
2017-07-27T00:08:45.269Z,0
2017-07-27T00:09:44.589Z,0
2017-07-27T00:10:44.933Z,0
2017-07-27T00:11:45.258Z,0
2017-07-27T00:12:45.235Z,0
2017-07-27T00:13:45.231Z,0
2017-07-27T00:14:44.563Z,0
2017-07-27T00:15:45.220Z,0
2017-07-27T00:16:45.240Z,0
2017-07-27T00:17:44.879Z,0
2017-07-27T00:18:45.193Z,0
2017-07-27T00:19:45.189Z,0
2017-07-27T00:20:45.224Z,0
2017-07-27T00:21:44.840Z,0
2017-07-27T00:22:45.180Z,0
2017-07-27T00:23:44.847Z,0
2017-07-27T00:24:44.819Z,0
2017-07-27T00:25:44.853Z,0
2017-07-27T00:26:44.842Z,0
2017-07-27T00:27:44.822Z,0
2017-07-27T00:28:44.796Z,0
2017-07-27T00:29:44.812Z,0
2017-07-27T00:30:44.795Z,0
2017-07-27T00:31:44.517Z,0
2017-07-27T00:32:44.772Z,0
2017-07-27T00:33:44.443Z,0
2017-07-27T00:34:44.442Z,0
2017-07-27T00:35:44.771Z,0
2017-07-27T00:36:44.748Z,0
2017-07-27T00:37:44.744Z,0
2017-07-27T00:38:44.735Z,0
2017-07-27T00:39:44.743Z,0
2017-07-27T00:40:45.056Z,0
2017-07-27T00:41:44.718Z,0
2017-07-27T00:42:45.056Z,0
2017-07-27T00:43:44.708Z,0
2017-07-27T00:44:44.699Z,0
2017-07-27T00:45:44.715Z,0
2017-07-27T00:46:44.702Z,0
2017-07-27T00:47:45.017Z,0
2017-07-27T00:48:45.040Z,0
2017-07-27T00:49:44.385Z,0
2017-07-27T00:50:44.687Z,0
2017-07-27T00:51:44.978Z,0
2017-07-27T00:52:44.990Z,0
2017-07-27T00:53:44.996Z,0
2017-07-27T00:54:44.981Z,0
2017-07-27T00:55:44.982Z,0
2017-07-27T00:56:44.647Z,0
2017-07-27T00:57:44.650Z,0
2017-07-27T00:58:44.425Z,0
2017-07-27T00:59:44.746Z,0
2017-07-27T01:00:44.293Z,0
2017-07-27T01:01:44.930Z,0
2017-07-27T01:02:44.599Z,0
2017-07-27T01:03:44.600Z,0
2017-07-27T01:04:45.679Z,0
2017-07-27T01:05:44.901Z,0
2017-07-27T01:06:44.908Z,0
2017-07-27T01:07:44.883Z,0
2017-07-27T01:08:44.552Z,0
2017-07-27T01:09:44.890Z,0
2017-07-27T01:10:44.890Z,0
2017-07-27T01:11:44.557Z,0
2017-07-27T01:12:44.530Z,0
2017-07-27T01:13:44.545Z,0
2017-07-27T01:14:44.231Z,0
2017-07-27T01:15:44.534Z,0
2017-07-27T01:16:44.506Z,0
2017-07-27T01:17:44.818Z,0
2017-07-27T01:18:44.867Z,0
2017-07-27T01:19:44.483Z,0
2017-07-27T01:20:44.811Z,0
2017-07-27T01:21:44.478Z,0
2017-07-27T01:22:44.787Z,0
2017-07-27T01:23:44.802Z,0
2017-07-27T01:24:44.472Z,0
2017-07-27T01:25:44.459Z,0
2017-07-27T01:26:44.461Z,0
2017-07-27T01:27:44.776Z,0
2017-07-27T01:28:44.477Z,0
2017-07-27T01:29:44.435Z,0
2017-07-27T01:30:44.104Z,0
2017-07-27T01:31:44.413Z,0
2017-07-27T01:32:44.441Z,0
2017-07-27T01:33:44.725Z,0
2017-07-27T01:34:44.073Z,0
2017-07-27T01:35:44.393Z,0
2017-07-27T01:36:44.407Z,0
2017-07-27T01:37:44.066Z,0
2017-07-27T01:38:44.377Z,0
2017-07-27T01:39:44.388Z,0
2017-07-27T01:40:44.055Z,0
2017-07-27T01:41:44.706Z,0
2017-07-27T01:42:44.367Z,0
2017-07-27T01:43:44.669Z,0
2017-07-27T01:44:44.017Z,0
2017-07-27T01:45:44.334Z,0
2017-07-27T01:46:44.325Z,0
2017-07-27T01:47:44.338Z,0
2017-07-27T01:48:44.337Z,0
2017-07-27T01:49:44.324Z,0
2017-07-27T01:50:43.983Z,0
2017-07-27T01:51:44.291Z,0
2017-07-27T01:52:44.344Z,0
2017-07-27T01:53:44.294Z,0
2017-07-27T01:54:44.603Z,0
2017-07-27T01:55:43.947Z,0
2017-07-27T01:56:44.263Z,0
2017-07-27T01:57:43.962Z,0
2017-07-27T01:58:44.264Z,0
2017-07-27T01:59:43.934Z,0
2017-07-27T02:00:44.279Z,0
2017-07-27T02:01:44.555Z,0
2017-07-27T02:02:44.553Z,0
2017-07-27T02:03:44.541Z,0
2017-07-27T02:04:44.538Z,0
2017-07-27T02:05:44.541Z,0
2017-07-27T02:06:44.219Z,0
2017-07-27T02:07:44.550Z,0
2017-07-27T02:08:44.192Z,0
2017-07-27T02:09:44.194Z,0
2017-07-27T02:10:44.175Z,0
2017-07-27T02:11:44.508Z,0
2017-07-27T02:12:44.170Z,0
2017-07-27T02:13:44.512Z,0
2017-07-27T02:14:44.158Z,0
2017-07-27T02:15:44.151Z,0
2017-07-27T02:16:44.485Z,0
2017-07-27T02:17:43.821Z,0
2017-07-27T02:18:44.136Z,0
2017-07-27T02:19:44.446Z,0
2017-07-27T02:20:43.825Z,0
2017-07-27T02:21:44.433Z,0
2017-07-27T02:22:43.483Z,0
2017-07-27T02:23:44.433Z,0
2017-07-27T02:24:44.099Z,0
2017-07-27T02:25:44.107Z,0
2017-07-27T02:26:44.097Z,0
2017-07-27T02:27:44.454Z,0
2017-07-27T02:28:44.391Z,0
2017-07-27T02:29:44.386Z,0
2017-07-27T02:30:44.399Z,0
2017-07-27T02:31:44.053Z,0
2017-07-27T02:32:44.046Z,0
2017-07-27T02:33:44.357Z,0
2017-07-27T02:34:43.722Z,0
2017-07-27T02:35:44.358Z,0
2017-07-27T02:36:44.356Z,0
2017-07-27T02:37:43.725Z,0
2017-07-27T02:38:44.011Z,0
2017-07-27T02:39:44.002Z,0
2017-07-27T02:40:44.001Z,0
2017-07-27T02:41:44.347Z,0
2017-07-27T02:42:44.330Z,0
2017-07-27T02:43:44.329Z,0
2017-07-27T02:44:44.013Z,0
2017-07-27T02:45:43.985Z,0
2017-07-27T02:46:44.289Z,0
2017-07-27T02:47:44.280Z,0
2017-07-27T02:48:43.964Z,0
2017-07-27T02:49:43.960Z,0
2017-07-27T02:50:43.978Z,0
2017-07-27T02:51:44.306Z,0
2017-07-27T02:52:44.245Z,0
2017-07-27T02:53:43.600Z,0
2017-07-27T02:54:44.232Z,0
2017-07-27T02:55:43.992Z,0
2017-07-27T02:56:43.911Z,0
2017-07-27T02:57:44.253Z,0
2017-07-27T02:58:44.232Z,4
2017-07-27T02:59:43.889Z,4
2017-07-27T03:00:44.222Z,4
2017-07-27T03:01:43.876Z,4
2017-07-27T03:02:44.225Z,4
2017-07-27T03:03:43.863Z,4
2017-07-27T03:04:44.196Z,0
2017-07-27T03:05:44.177Z,4
2017-07-27T03:06:43.543Z,4
2017-07-27T03:07:44.169Z,4
2017-07-27T03:08:44.172Z,8
2017-07-27T03:09:44.175Z,8
2017-07-27T03:10:43.820Z,8
2017-07-27T03:11:43.502Z,12
2017-07-27T03:12:43.809Z,16
2017-07-27T03:13:43.804Z,16
2017-07-27T03:14:43.806Z,24
2017-07-27T03:15:44.115Z,32
2017-07-27T03:16:43.786Z,36
2017-07-27T03:17:43.803Z,40
2017-07-27T03:18:43.469Z,48
2017-07-27T03:19:43.806Z,52
2017-07-27T03:20:44.108Z,56
2017-07-27T03:21:43.757Z,68
2017-07-27T03:22:43.440Z,72
2017-07-27T03:23:43.747Z,80
2017-07-27T03:24:43.741Z,88
2017-07-27T03:25:43.742Z,100
2017-07-27T03:26:43.731Z,108
2017-07-27T03:27:43.741Z,120
2017-07-27T03:28:43.417Z,132
2017-07-27T03:29:43.391Z,144
2017-07-27T03:30:44.067Z,164
2017-07-27T03:31:44.041Z,184
2017-07-27T03:32:44.026Z,204
2017-07-27T03:33:43.682Z,220
2017-07-27T03:34:43.999Z,240
2017-07-27T03:35:44.029Z,268
2017-07-27T03:36:43.393Z,296
2017-07-27T03:37:43.682Z,332
2017-07-27T03:38:43.654Z,368
2017-07-27T03:39:43.990Z,408
2017-07-27T03:40:43.965Z,440
2017-07-27T03:41:43.965Z,476
2017-07-27T03:42:43.307Z,508
2017-07-27T03:43:43.628Z,540
2017-07-27T03:44:43.936Z,572
2017-07-27T03:45:43.637Z,608
2017-07-27T03:46:43.630Z,648
2017-07-27T03:47:43.706Z,696
2017-07-27T03:48:43.602Z,740
2017-07-27T03:49:43.902Z,780
2017-07-27T03:50:43.917Z,824
2017-07-27T03:51:43.906Z,864
2017-07-27T03:52:43.902Z,896
2017-07-27T03:53:43.243Z,932
2017-07-27T03:54:43.559Z,964
2017-07-27T03:55:43.870Z,1000
2017-07-27T03:56:43.536Z,1036
2017-07-27T03:57:43.543Z,1068
2017-07-27T03:58:43.533Z,1096
2017-07-27T03:59:43.837Z,1124
2017-07-27T04:00:43.835Z,1152
2017-07-27T04:01:43.523Z,1184
2017-07-27T04:02:43.675Z,1220
2017-07-27T04:03:43.505Z,1260
2017-07-27T04:04:43.320Z,1292
2017-07-27T04:05:43.496Z,1328
2017-07-27T04:06:43.518Z,1368
2017-07-27T04:07:43.462Z,1408
2017-07-27T04:08:43.777Z,1452
2017-07-27T04:09:43.467Z,1504
2017-07-27T04:10:43.768Z,1560
2017-07-27T04:11:43.118Z,1620
2017-07-27T04:12:43.430Z,1672
2017-07-27T04:13:43.423Z,1712
2017-07-27T04:14:43.416Z,1764
2017-07-27T04:15:43.091Z,1820
2017-07-27T04:16:43.719Z,1872
2017-07-27T04:17:43.398Z,1920
2017-07-27T04:18:43.741Z,1968
2017-07-27T04:19:43.058Z,2016
2017-07-27T04:20:43.067Z,2068
2017-07-27T04:21:43.695Z,2108
2017-07-27T04:22:43.041Z,2120
2017-07-27T04:23:43.675Z,2112
2017-07-27T04:24:43.663Z,2116
2017-07-27T04:25:43.339Z,2120
2017-07-27T04:26:43.664Z,2144
2017-07-27T04:27:43.643Z,2172
2017-07-27T04:28:43.340Z,2208
2017-07-27T04:29:44.294Z,2244
2017-07-27T04:30:43.631Z,2280
2017-07-27T04:31:43.648Z,2332
2017-07-27T04:32:43.609Z,2392
2017-07-27T04:33:43.597Z,2456
2017-07-27T04:34:43.601Z,2492
2017-07-27T04:35:43.608Z,2528
2017-07-27T04:36:43.585Z,2576
2017-07-27T04:37:43.574Z,2616
2017-07-27T04:38:43.263Z,2656
2017-07-27T04:39:42.919Z,2692
2017-07-27T04:40:43.551Z,2728
2017-07-27T04:41:43.567Z,2800
2017-07-27T04:42:43.234Z,2940
2017-07-27T04:43:42.935Z,3172
2017-07-27T04:44:42.902Z,3564
2017-07-27T04:45:43.529Z,4376
2017-07-27T04:46:42.902Z,5044
2017-07-27T04:47:43.510Z,4928
2017-07-27T04:48:42.860Z,4328
2017-07-27T04:49:43.171Z,3948
2017-07-27T04:50:43.160Z,3864
2017-07-27T04:51:43.507Z,3600
2017-07-27T04:52:43.147Z,3132
2017-07-27T04:53:43.155Z,2976
2017-07-27T04:54:43.162Z,3644
2017-07-27T04:55:43.475Z,4372
2017-07-27T04:56:43.128Z,3852
2017-07-27T04:57:43.141Z,3032
2017-07-27T04:58:43.466Z,2840
2017-07-27T04:59:42.793Z,2784
2017-07-27T05:00:43.447Z,2680
2017-07-27T05:01:43.436Z,2856
2017-07-27T05:02:43.089Z,3252
2017-07-27T05:03:43.394Z,3128
2017-07-27T05:04:43.130Z,2548
2017-07-27T05:05:43.069Z,2568
2017-07-27T05:06:43.402Z,3172
2017-07-27T05:07:43.055Z,3980
2017-07-27T05:08:43.388Z,4416
2017-07-27T05:09:42.729Z,4432
2017-07-27T05:10:42.729Z,4772
2017-07-27T05:11:43.049Z,5296
2017-07-27T05:12:42.715Z,5192
2017-07-27T05:13:43.332Z,4508
2017-07-27T05:14:43.022Z,4068
2017-07-27T05:15:43.340Z,3912
2017-07-27T05:16:43.023Z,3788
2017-07-27T05:17:43.330Z,3696
2017-07-27T05:18:42.979Z,3844
2017-07-27T05:19:43.297Z,4108
2017-07-27T05:20:43.294Z,4340
2017-07-27T05:21:43.285Z,4340
2017-07-27T05:22:42.977Z,4340
2017-07-27T05:23:43.282Z,4292
2017-07-27T05:24:42.948Z,4260
2017-07-27T05:25:43.299Z,4260
2017-07-27T05:26:42.953Z,4324
2017-07-27T05:27:42.929Z,4380
2017-07-27T05:28:42.665Z,4404
2017-07-27T05:29:42.945Z,4432
2017-07-27T05:30:42.982Z,4440
2017-07-27T05:31:43.260Z,4484
2017-07-27T05:32:42.905Z,4504
2017-07-27T05:33:43.228Z,4564
2017-07-27T05:34:42.884Z,4692
2017-07-27T05:35:42.902Z,4876
2017-07-27T05:36:43.203Z,5016
2017-07-27T05:37:43.218Z,5112
2017-07-27T05:38:42.862Z,5320
2017-07-27T05:39:43.208Z,5720
2017-07-27T05:40:43.197Z,6544
2017-07-27T05:41:42.850Z,8284
2017-07-27T05:42:42.871Z,10244
2017-07-27T05:43:43.158Z,10976
2017-07-27T05:44:42.845Z,9656
2017-07-27T05:45:43.146Z,8452
2017-07-27T05:46:42.516Z,8152
2017-07-27T05:47:43.137Z,8856
2017-07-27T05:48:42.843Z,9752
2017-07-27T05:49:43.135Z,10476
2017-07-27T05:50:42.805Z,10536
2017-07-27T05:51:42.474Z,9592
2017-07-27T05:52:43.118Z,7804
2017-07-27T05:53:42.983Z,6804
2017-07-27T05:54:42.776Z,6904
2017-07-27T05:55:42.776Z,7628
2017-07-27T05:56:42.773Z,8512
2017-07-27T05:57:43.110Z,8932
2017-07-27T05:58:42.771Z,9744
2017-07-27T05:59:42.763Z,10996
2017-07-27T06:00:43.099Z,11068
2017-07-27T06:01:43.069Z,8828
2017-07-27T06:02:43.073Z,7248
2017-07-27T06:03:42.741Z,7236
2017-07-27T06:04:42.737Z,7416
2017-07-27T06:05:42.728Z,6900
2017-07-27T06:06:43.045Z,6300
2017-07-27T06:07:43.041Z,6452
2017-07-27T06:08:42.715Z,6924
2017-07-27T06:09:43.033Z,6852
2017-07-27T06:10:43.041Z,5684
2017-07-27T06:11:42.730Z,5064
2017-07-27T06:12:42.704Z,5708
2017-07-27T06:13:42.696Z,7296
2017-07-27T06:14:42.733Z,9276
2017-07-27T06:15:42.689Z,8880
2017-07-27T06:16:42.063Z,7856
2017-07-27T06:17:43.024Z,7132
2017-07-27T06:18:43.000Z,6524
2017-07-27T06:19:43.015Z,6132
2017-07-27T06:20:42.668Z,6576
2017-07-27T06:21:43.026Z,7492
2017-07-27T06:22:42.994Z,8484
2017-07-27T06:23:42.686Z,8456
2017-07-27T06:24:42.671Z,10164
2017-07-27T06:25:42.666Z,12156
2017-07-27T06:26:42.981Z,13692
2017-07-27T06:27:42.962Z,13112
2017-07-27T06:28:42.978Z,11528
2017-07-27T06:29:42.965Z,10880
2017-07-27T06:30:42.958Z,9640
2017-07-27T06:31:42.667Z,8648
2017-07-27T06:32:42.329Z,7712
2017-07-27T06:33:42.982Z,7972
2017-07-27T06:34:42.652Z,7808
2017-07-27T06:35:42.946Z,6956
2017-07-27T06:36:42.948Z,6732
2017-07-27T06:37:42.625Z,6876
2017-07-27T06:38:42.615Z,7548
2017-07-27T06:39:42.938Z,8452
2017-07-27T06:40:42.612Z,8812
2017-07-27T06:41:42.662Z,11776
2017-07-27T06:42:42.306Z,15780
2017-07-27T06:43:42.953Z,16960
2017-07-27T06:44:42.621Z,12824
2017-07-27T06:45:42.942Z,16216
2017-07-27T06:46:42.608Z,24000
2017-07-27T06:47:42.940Z,29920
2017-07-27T06:48:42.632Z,22592
2017-07-27T06:49:42.267Z,29888
2017-07-27T06:50:42.595Z,34304
2017-07-27T06:51:42.276Z,32992
2017-07-27T06:52:42.592Z,34464
2017-07-27T06:53:42.617Z,29728
2017-07-27T06:54:42.812Z,31136
2017-07-27T06:55:42.624Z,17664
2017-07-27T06:56:42.581Z,20544
2017-07-27T06:57:42.578Z,39456
2017-07-27T06:58:42.914Z,40736
2017-07-27T06:59:42.573Z,45664
2017-07-27T07:00:41.943Z,44928
2017-07-27T07:01:42.583Z,46208
2017-07-27T07:02:42.892Z,27104
2017-07-27T07:03:42.570Z,17856
2017-07-27T07:04:42.568Z,17408
2017-07-27T07:05:42.893Z,16016
2017-07-27T07:06:42.896Z,17824
2017-07-27T07:07:42.570Z,33408
2017-07-27T07:08:42.255Z,28448
2017-07-27T07:09:42.892Z,40736
2017-07-27T07:10:42.911Z,20064
2017-07-27T07:11:42.248Z,23584
2017-07-27T07:12:42.302Z,24000
2017-07-27T07:13:42.259Z,31456
2017-07-27T07:14:42.586Z,33568
2017-07-27T07:15:42.273Z,34848
2017-07-27T07:16:42.574Z,22336
2017-07-27T07:17:42.917Z,18624
2017-07-27T07:18:42.891Z,18720
2017-07-27T07:19:43.109Z,20640
2017-07-27T07:20:42.596Z,24896
2017-07-27T07:21:41.946Z,23584
2017-07-27T07:22:42.897Z,15004
2017-07-27T07:23:42.915Z,20992
2017-07-27T07:24:42.277Z,8972
2017-07-27T07:25:42.278Z,7744
2017-07-27T07:26:42.603Z,6920
2017-07-27T07:27:42.900Z,6480
2017-07-27T07:28:42.911Z,6488
2017-07-27T07:29:42.617Z,7360
2017-07-27T07:30:42.608Z,8708
2017-07-27T07:31:42.623Z,9616
2017-07-27T07:32:42.276Z,10332
2017-07-27T07:33:42.590Z,10344
2017-07-27T07:34:42.596Z,10920
2017-07-27T07:35:42.913Z,11828
2017-07-27T07:36:42.583Z,12892
2017-07-27T07:37:42.605Z,13780
2017-07-27T07:38:42.270Z,14304
2017-07-27T07:39:42.581Z,14444
2017-07-27T07:40:42.937Z,14192
2017-07-27T07:41:42.900Z,13728
2017-07-27T07:42:42.251Z,12936
2017-07-27T07:43:42.589Z,11896
2017-07-27T07:44:42.566Z,11360
2017-07-27T07:45:42.289Z,11240
2017-07-27T07:46:42.900Z,11316
2017-07-27T07:47:42.908Z,11176
2017-07-27T07:48:42.458Z,11044
2017-07-27T07:49:42.569Z,11100
2017-07-27T07:50:42.907Z,11276
2017-07-27T07:51:42.892Z,11676
2017-07-27T07:52:42.261Z,12040
2017-07-27T07:53:42.590Z,12372
2017-07-27T07:54:42.895Z,12636
2017-07-27T07:55:43.083Z,12800
2017-07-27T07:56:42.245Z,12964
2017-07-27T07:57:42.898Z,13116
2017-07-27T07:58:42.902Z,13360
2017-07-27T07:59:42.908Z,13424
2017-07-27T08:00:42.574Z,13428
2017-07-27T08:01:42.239Z,13292
2017-07-27T08:02:42.886Z,13104
2017-07-27T08:03:42.882Z,12912
2017-07-27T08:04:41.916Z,12760
2017-07-27T08:05:42.615Z,12512
2017-07-27T08:06:42.234Z,12120
2017-07-27T08:07:42.244Z,11996
2017-07-27T08:08:42.233Z,11992
2017-07-27T08:09:42.265Z,12196
2017-07-27T08:10:42.552Z,12648
2017-07-27T08:11:42.554Z,13116
2017-07-27T08:12:42.558Z,13500
2017-07-27T08:13:42.869Z,13744
2017-07-27T08:14:42.878Z,14348
2017-07-27T08:15:42.885Z,14712
2017-07-27T08:16:42.233Z,13040
2017-07-27T08:17:42.545Z,13624
2017-07-27T08:18:42.563Z,14340
2017-07-27T08:19:42.548Z,12880
2017-07-27T08:20:42.224Z,13832
2017-07-27T08:21:42.874Z,14356
2017-07-27T08:22:42.541Z,13836
2017-07-27T08:23:42.563Z,13464
2017-07-27T08:24:42.251Z,12984
2017-07-27T08:25:42.858Z,12804
2017-07-27T08:26:42.881Z,12376
2017-07-27T08:27:42.873Z,12204
2017-07-27T08:28:42.581Z,11956
2017-07-27T08:29:42.535Z,12000
2017-07-27T08:30:42.877Z,12044
2017-07-27T08:31:41.899Z,11848
2017-07-27T08:32:42.854Z,11528
2017-07-27T08:33:42.861Z,11028
2017-07-27T08:34:42.853Z,10476
2017-07-27T08:35:42.852Z,9944
2017-07-27T08:36:42.849Z,9460
2017-07-27T08:37:42.209Z,9148
2017-07-27T08:38:42.851Z,8884
2017-07-27T08:39:42.897Z,8940
2017-07-27T08:40:42.576Z,8892
2017-07-27T08:41:42.842Z,8880
2017-07-27T08:42:42.840Z,8524
2017-07-27T08:43:42.199Z,8056
2017-07-27T08:44:42.519Z,7640
2017-07-27T08:45:42.205Z,7172
2017-07-27T08:46:42.861Z,6596
2017-07-27T08:47:42.193Z,5916
2017-07-27T08:48:42.523Z,5384
2017-07-27T08:49:42.512Z,5560
2017-07-27T08:50:42.515Z,5808
2017-07-27T08:51:42.845Z,5724
2017-07-27T08:52:42.210Z,5136
2017-07-27T08:53:42.184Z,3768
2017-07-27T08:54:42.511Z,3056
2017-07-27T08:55:42.828Z,3480
2017-07-27T08:56:42.500Z,4172
2017-07-27T08:57:42.513Z,4716
2017-07-27T08:58:42.507Z,5812
2017-07-27T08:59:42.859Z,5688
2017-07-27T09:00:42.191Z,5476
2017-07-27T09:01:42.491Z,5248
2017-07-27T09:02:42.817Z,5432
2017-07-27T09:03:42.815Z,5620
2017-07-27T09:04:42.506Z,5504
2017-07-27T09:05:42.809Z,5068
2017-07-27T09:06:42.809Z,4180
2017-07-27T09:07:42.823Z,3900
2017-07-27T09:08:42.805Z,4016
2017-07-27T09:09:42.795Z,3760
2017-07-27T09:10:42.815Z,3520
2017-07-27T09:11:42.468Z,3580
2017-07-27T09:12:42.488Z,3660
2017-07-27T09:13:42.817Z,3964
2017-07-27T09:14:42.784Z,4460
2017-07-27T09:15:42.154Z,5144
2017-07-27T09:16:42.779Z,5452
2017-07-27T09:17:42.777Z,5896
2017-07-27T09:18:42.476Z,6124
2017-07-27T09:19:41.812Z,6652
2017-07-27T09:20:42.472Z,7308
2017-07-27T09:21:42.776Z,8960
2017-07-27T09:22:42.767Z,7612
2017-07-27T09:23:42.776Z,7488
2017-07-27T09:24:42.441Z,5680
2017-07-27T09:25:42.798Z,5216
2017-07-27T09:26:42.445Z,6556
2017-07-27T09:27:42.766Z,6476
2017-07-27T09:28:42.428Z,5632
2017-07-27T09:29:42.754Z,5468
2017-07-27T09:30:42.427Z,5992
2017-07-27T09:31:42.431Z,6644
2017-07-27T09:32:42.741Z,6488
2017-07-27T09:33:42.436Z,5696
2017-07-27T09:34:42.109Z,5392
2017-07-27T09:35:42.739Z,5688
2017-07-27T09:36:42.771Z,6212
2017-07-27T09:37:42.728Z,9360
2017-07-27T09:38:42.725Z,11176
2017-07-27T09:39:42.759Z,10972
2017-07-27T09:40:41.763Z,9108
2017-07-27T09:41:42.404Z,6876
2017-07-27T09:42:42.715Z,4832
2017-07-27T09:43:42.718Z,4556
2017-07-27T09:44:42.723Z,4552
2017-07-27T09:45:42.718Z,5140
2017-07-27T09:46:42.386Z,6104
2017-07-27T09:47:42.384Z,6120
2017-07-27T09:48:42.748Z,5820
2017-07-27T09:49:42.405Z,5208
2017-07-27T09:50:42.056Z,5232
2017-07-27T09:51:42.689Z,3924
2017-07-27T09:52:42.391Z,3612
2017-07-27T09:53:42.685Z,4160
2017-07-27T09:54:42.419Z,4436
2017-07-27T09:55:42.682Z,4088
2017-07-27T09:56:42.677Z,3484
2017-07-27T09:57:42.378Z,3164
2017-07-27T09:58:42.351Z,2664
2017-07-27T09:59:42.690Z,2764
2017-07-27T10:00:42.349Z,3408
2017-07-27T10:01:42.358Z,3964
2017-07-27T10:02:42.362Z,4544
2017-07-27T10:03:42.688Z,4412
2017-07-27T10:04:42.662Z,5136
2017-07-27T10:05:42.031Z,4908
2017-07-27T10:06:42.345Z,5060
2017-07-27T10:07:42.340Z,5796
2017-07-27T10:08:42.669Z,5888
2017-07-27T10:09:42.400Z,5636
2017-07-27T10:10:42.321Z,5568
2017-07-27T10:11:42.335Z,5216
2017-07-27T10:12:41.994Z,5112
2017-07-27T10:13:42.306Z,5256
2017-07-27T10:14:42.311Z,5260
2017-07-27T10:15:41.986Z,5460
2017-07-27T10:16:41.980Z,5704
2017-07-27T10:17:42.301Z,6032
2017-07-27T10:18:41.973Z,6628
2017-07-27T10:19:42.294Z,5956
2017-07-27T10:20:42.306Z,5716
2017-07-27T10:21:42.295Z,5236
2017-07-27T10:22:42.621Z,5160
2017-07-27T10:23:42.617Z,4968
2017-07-27T10:24:42.617Z,5124
2017-07-27T10:25:42.293Z,5592
2017-07-27T10:26:42.284Z,6164
2017-07-27T10:27:42.286Z,6028
2017-07-27T10:28:42.266Z,5300
2017-07-27T10:29:42.279Z,5436
2017-07-27T10:30:41.941Z,6060
2017-07-27T10:31:42.269Z,6168
2017-07-27T10:32:42.579Z,7412
2017-07-27T10:33:42.605Z,7032
2017-07-27T10:34:42.261Z,8412
2017-07-27T10:35:42.273Z,9440
2017-07-27T10:36:42.240Z,9900
2017-07-27T10:37:42.128Z,10452
2017-07-27T10:38:42.582Z,10740
2017-07-27T10:39:42.579Z,11780
2017-07-27T10:40:42.554Z,11976
2017-07-27T10:41:42.236Z,11228
2017-07-27T10:42:42.258Z,10392
2017-07-27T10:43:42.562Z,9864
2017-07-27T10:44:41.898Z,9240
2017-07-27T10:45:42.551Z,9588
2017-07-27T10:46:42.212Z,10840
2017-07-27T10:47:42.594Z,12220
2017-07-27T10:48:41.889Z,12328
2017-07-27T10:49:41.895Z,10676
2017-07-27T10:50:42.236Z,11180
2017-07-27T10:51:42.525Z,11948
2017-07-27T10:52:41.886Z,11360
2017-07-27T10:53:42.198Z,12152
2017-07-27T10:54:42.537Z,12744
2017-07-27T10:55:42.234Z,11984
2017-07-27T10:56:41.877Z,9900
2017-07-27T10:57:42.190Z,9464
2017-07-27T10:58:42.208Z,9492
2017-07-27T10:59:42.204Z,7840
2017-07-27T11:00:42.209Z,7844
2017-07-27T11:01:42.213Z,9004
2017-07-27T11:02:42.530Z,10168
2017-07-27T11:03:42.508Z,10340
2017-07-27T11:04:42.490Z,10168
2017-07-27T11:05:42.530Z,7168
2017-07-27T11:06:42.170Z,8640
2017-07-27T11:07:42.182Z,8320
2017-07-27T11:08:42.167Z,7784
2017-07-27T11:09:41.843Z,8132
2017-07-27T11:10:42.177Z,8180
2017-07-27T11:11:42.477Z,8312
2017-07-27T11:12:41.861Z,8428
2017-07-27T11:13:42.354Z,8564
2017-07-27T11:14:42.484Z,8260
2017-07-27T11:15:42.172Z,7664
2017-07-27T11:16:42.157Z,7536
2017-07-27T11:17:41.824Z,8228
2017-07-27T11:18:42.487Z,7636
2017-07-27T11:19:42.465Z,7912
2017-07-27T11:20:42.477Z,7624
2017-07-27T11:21:42.154Z,8504
2017-07-27T11:22:42.472Z,8668
2017-07-27T11:23:42.457Z,9900
2017-07-27T11:24:42.462Z,9804
2017-07-27T11:25:42.452Z,8424
2017-07-27T11:26:42.139Z,8796
2017-07-27T11:27:41.812Z,7448
2017-07-27T11:28:42.115Z,7972
2017-07-27T11:29:42.437Z,7808
2017-07-27T11:30:42.436Z,7628
2017-07-27T11:31:42.505Z,7268
2017-07-27T11:32:41.468Z,7540
2017-07-27T11:33:42.106Z,7880
2017-07-27T11:34:41.458Z,5512
2017-07-27T11:35:41.780Z,7116
2017-07-27T11:36:41.796Z,6560
2017-07-27T11:37:41.778Z,6648
2017-07-27T11:38:42.110Z,6584
2017-07-27T11:39:42.415Z,6192
2017-07-27T11:40:41.767Z,5508
2017-07-27T11:41:42.412Z,5848
2017-07-27T11:42:42.089Z,5420
2017-07-27T11:43:42.435Z,5228
2017-07-27T11:44:42.096Z,4572
2017-07-27T11:45:42.416Z,4232
2017-07-27T11:46:42.075Z,4296
2017-07-27T11:47:42.081Z,4044
2017-07-27T11:48:42.065Z,4140
2017-07-27T11:49:42.075Z,3808
2017-07-27T11:50:42.068Z,3544
2017-07-27T11:51:42.425Z,3348
2017-07-27T11:52:42.379Z,3284
2017-07-27T11:53:42.116Z,3260
2017-07-27T11:54:42.052Z,3584
2017-07-27T11:55:41.729Z,4164
2017-07-27T11:56:42.370Z,4244
2017-07-27T11:57:42.053Z,4212
2017-07-27T11:58:42.375Z,4344
2017-07-27T11:59:42.047Z,4640
2017-07-27T12:00:42.036Z,4680
2017-07-27T12:01:42.412Z,5392
2017-07-27T12:02:42.030Z,6476
2017-07-27T12:03:42.062Z,7164
2017-07-27T12:04:42.349Z,7172
2017-07-27T12:05:42.345Z,6572
2017-07-27T12:06:42.032Z,6452
2017-07-27T12:07:42.366Z,5340
2017-07-27T12:08:42.335Z,6172
2017-07-27T12:09:42.335Z,5980
2017-07-27T12:10:42.023Z,6404
2017-07-27T12:11:42.014Z,6732
2017-07-27T12:12:42.344Z,8444
2017-07-27T12:13:42.328Z,8948
2017-07-27T12:14:42.020Z,9644
2017-07-27T12:15:41.694Z,10900
2017-07-27T12:16:42.029Z,10472
2017-07-27T12:17:41.986Z,10440
2017-07-27T12:18:42.008Z,8040
2017-07-27T12:19:42.308Z,7952
2017-07-27T12:20:41.658Z,8056
2017-07-27T12:21:41.982Z,8436
2017-07-27T12:22:41.975Z,9540
2017-07-27T12:23:41.989Z,10688
2017-07-27T12:24:41.664Z,10692
2017-07-27T12:25:42.282Z,9876
2017-07-27T12:26:41.644Z,11744
2017-07-27T12:27:42.296Z,12264
2017-07-27T12:28:41.959Z,12604
2017-07-27T12:29:41.632Z,11936
2017-07-27T12:30:42.286Z,10700
2017-07-27T12:31:42.271Z,12728
2017-07-27T12:32:41.961Z,11376
2017-07-27T12:33:42.262Z,9304
2017-07-27T12:34:42.286Z,9188
2017-07-27T12:35:42.283Z,8480
2017-07-27T12:36:41.629Z,9292
2017-07-27T12:37:42.290Z,9456
2017-07-27T12:38:42.292Z,10264
2017-07-27T12:39:42.289Z,12140
2017-07-27T12:40:42.253Z,16992
2017-07-27T12:41:42.247Z,19456
2017-07-27T12:42:42.245Z,17376
2017-07-27T12:43:41.945Z,16436
2017-07-27T12:44:42.249Z,15336
2017-07-27T12:45:41.912Z,16024
2017-07-27T12:46:42.242Z,16832
2017-07-27T12:47:41.938Z,16196
2017-07-27T12:48:41.911Z,14984
2017-07-27T12:49:41.962Z,13080
2017-07-27T12:50:41.906Z,11964
2017-07-27T12:51:42.225Z,11176
2017-07-27T12:52:41.903Z,9784
2017-07-27T12:53:41.899Z,8736
2017-07-27T12:54:42.254Z,8960
2017-07-27T12:55:42.235Z,9796
2017-07-27T12:56:42.222Z,9232
2017-07-27T12:57:41.580Z,8152
2017-07-27T12:58:41.909Z,8648
2017-07-27T12:59:42.239Z,7604
2017-07-27T13:00:41.929Z,7324
2017-07-27T13:01:42.230Z,6264
2017-07-27T13:02:41.930Z,6096
2017-07-27T13:03:41.896Z,6832
2017-07-27T13:04:42.233Z,6852
2017-07-27T13:05:41.886Z,7532
2017-07-27T13:06:42.217Z,8992
2017-07-27T13:07:41.880Z,9820
2017-07-27T13:08:41.879Z,9624
2017-07-27T13:09:41.883Z,9100
2017-07-27T13:10:41.556Z,9176
2017-07-27T13:11:41.566Z,9468
2017-07-27T13:12:42.204Z,9464
2017-07-27T13:13:41.874Z,9000
2017-07-27T13:14:41.556Z,9112
2017-07-27T13:15:41.913Z,9312
2017-07-27T13:16:42.190Z,9340
2017-07-27T13:17:41.910Z,9496
2017-07-27T13:18:41.863Z,9120
2017-07-27T13:19:41.869Z,8904
2017-07-27T13:20:42.190Z,9020
2017-07-27T13:21:42.186Z,9948
2017-07-27T13:22:42.188Z,10256
2017-07-27T13:23:42.172Z,10132
2017-07-27T13:24:42.173Z,10616
2017-07-27T13:25:41.535Z,10708
2017-07-27T13:26:42.192Z,10844
2017-07-27T13:27:41.219Z,11224
2017-07-27T13:28:41.843Z,11700
2017-07-27T13:29:42.162Z,12480
2017-07-27T13:30:41.840Z,13604
2017-07-27T13:31:42.165Z,14632
2017-07-27T13:32:42.178Z,15084
2017-07-27T13:33:42.164Z,15108